Time;durP1;ratioP1;P1;durP2;ratioP2;P2;SDS_P1;SDS_P2;PMS_P1;PMS_P2;Temp;Humidity;BMP_temperature;BMP_pressure;BME280_temperature;BME280_humidity;BME280_pressure;Samples;Min_cycle;Max_cycle;Signal;HPM_P1;HPM_P2
2022/01/23 00:04:35;;;;;;;75.40;25.75;;;;;;;5.09;80.34;101683.03;5068538;28;20397;-88
2022/01/23 00:07:05;;;;;;;85.80;28.73;;;;;;;5.09;80.72;101686.56;5055316;28;20049;-88
2022/01/23 00:09:32;;;;;;;84.60;28.88;;;;;;;5.09;80.53;101676.03;5045369;28;20373;-87
2022/01/23 00:12:03;;;;;;;82.45;28.30;;;;;;;5.09;80.54;101685.66;5044927;28;20143;-88
2022/01/23 00:17:22;;;;;;;77.00;27.20;;;;;;;5.08;80.83;101676.91;5029309;28;20455;-87
2022/01/23 00:19:56;;;;;;;71.78;22.60;;;;;;;5.07;80.49;101690.16;5027455;28;20057;-88
2022/01/23 00:22:31;;;;;;;77.60;25.85;;;;;;;5.08;80.64;101682.19;5015310;28;20036;-87
2022/01/23 00:30:45;;;;;;;78.28;28.48;;;;;;;5.09;80.65;101680.41;5020954;28;20044;-87
2022/01/23 00:33:12;;;;;;;80.00;27.02;;;;;;;5.10;80.75;101676.88;5013613;28;20043;-87
2022/01/23 00:35:41;;;;;;;67.30;21.70;;;;;;;5.10;80.61;101688.25;5026923;28;20036;-87
2022/01/23 00:38:10;;;;;;;69.10;23.00;;;;;;;5.09;80.79;101681.28;5046642;28;20859;-86
2022/01/23 00:40:38;;;;;;;64.53;22.05;;;;;;;5.11;80.56;101681.22;5024883;28;20045;-87
2022/01/23 00:43:13;;;;;;;76.03;25.00;;;;;;;5.11;80.75;101687.34;5028092;28;20048;-87
2022/01/23 00:45:45;;;;;;;66.35;21.15;;;;;;;5.11;80.81;101686.47;4983019;28;20041;-87
2022/01/23 00:48:14;;;;;;;86.30;27.13;;;;;;;5.11;80.68;101682.06;5038619;28;24210;-88
2022/01/23 00:50:43;;;;;;;83.70;27.63;;;;;;;5.10;80.69;101669.81;5036260;28;20037;-87
2022/01/23 00:53:14;;;;;;;78.07;28.00;;;;;;;5.08;80.65;101676.06;5034731;28;20040;-87
2022/01/23 00:55:44;;;;;;;88.15;27.67;;;;;;;5.10;80.83;101677.72;5039533;28;20055;-88
2022/01/23 00:58:14;;;;;;;94.78;30.00;;;;;;;5.10;80.88;101675.09;5038661;28;20037;-87
2022/01/23 01:00:42;;;;;;;90.78;30.27;;;;;;;5.11;80.61;101675.94;5012063;28;20114;-87
2022/01/23 01:03:09;;;;;;;83.00;28.77;;;;;;;5.12;80.89;101673.28;5043906;28;20044;-88
2022/01/23 01:05:36;;;;;;;82.00;28.25;;;;;;;5.11;80.90;101665.41;5050970;28;20506;-88
2022/01/23 01:08:05;;;;;;;73.22;23.10;;;;;;;5.11;80.79;101683.84;5020177;28;20314;-87
2022/01/23 01:10:40;;;;;;;81.10;23.25;;;;;;;5.11;80.72;101668.91;5037078;28;20047;-88
2022/01/23 01:13:11;;;;;;;78.47;28.17;;;;;;;5.10;80.99;101675.09;5005631;28;20525;-87
2022/01/23 01:30:15;;;;;;;57.88;20.70;;;;;;;5.10;80.84;101692.66;5020197;28;20053;-86
2022/01/23 01:32:26;;;;;;;65.35;20.73;;;;;;;5.08;80.82;101682.19;5042434;28;20098;-87
2022/01/23 01:35:04;;;;;;;74.47;25.58;;;;;;;5.08;80.83;101684.81;5036792;28;20102;-88
2022/01/23 01:37:31;;;;;;;72.70;23.05;;;;;;;5.08;80.71;101689.22;5022970;28;20490;-87
2022/01/23 01:40:00;;;;;;;75.57;23.02;;;;;;;5.09;80.91;101677.78;5036890;28;20127;-88
2022/01/23 01:42:28;;;;;;;71.97;23.15;;;;;;;5.10;80.89;101679.50;5028505;28;20124;-88
2022/01/23 01:44:55;;;;;;;73.80;23.08;;;;;;;5.09;80.82;101672.50;5040181;28;20114;-87
2022/01/23 01:47:21;;;;;;;83.47;27.52;;;;;;;5.09;80.72;101685.66;5051108;28;20055;-88
2022/01/23 01:49:54;;;;;;;86.70;29.58;;;;;;;5.07;80.66;101683.09;5056921;28;20456;-87
2022/01/23 01:52:21;;;;;;;82.38;30.05;;;;;;;5.10;80.65;101682.13;5070689;28;20408;-88
2022/01/23 01:54:57;;;;;;;68.82;23.00;;;;;;;5.09;80.74;101672.50;5038625;28;20129;-85
2022/01/23 01:57:29;;;;;;;63.40;22.25;;;;;;;5.10;80.67;101676.88;5050872;28;20052;-87
2022/01/23 02:08:39;;;;;;;88.75;28.10;;;;;;;5.04;80.57;101653.38;5045316;28;20099;-87
2022/01/23 02:11:18;;;;;;;86.00;25.30;;;;;;;5.06;80.86;101654.19;5052796;28;20099;-87
2022/01/23 02:52:48;;;;;;;69.88;23.13;;;;;;;5.04;80.67;101666.53;4991755;28;20080;-88
2022/01/23 02:55:22;;;;;;;80.80;24.23;;;;;;;5.03;81.12;101667.47;4998457;28;24609;-83
2022/01/23 03:00:20;;;;;;;70.43;23.75;;;;;;;5.05;80.90;101671.78;5053874;28;20040;-86
2022/01/23 03:03:08;;;;;;;60.00;20.67;;;;;;;5.04;81.06;101683.22;5061570;28;20114;-88
2022/01/23 03:16:10;;;;;;;89.40;29.40;;;;;;;5.01;80.94;101678.03;5037677;28;20388;-88
2022/01/23 03:24:13;;;;;;;77.25;24.05;;;;;;;5.03;80.82;101672.75;5028726;28;20069;-87
2022/01/23 03:31:22;;;;;;;83.68;28.77;;;;;;;4.98;80.81;101689.53;5032309;28;20498;-87
2022/01/23 03:33:36;;;;;;;70.80;21.27;;;;;;;4.98;80.83;101686.91;5060636;28;20060;-88
2022/01/23 03:36:04;;;;;;;71.28;25.33;;;;;;;5.00;81.04;101676.34;5029983;28;20474;-84
2022/01/23 03:38:31;;;;;;;80.97;27.75;;;;;;;5.02;80.83;101689.47;5044666;28;20040;-87
2022/01/23 03:40:58;;;;;;;78.22;27.00;;;;;;;5.02;80.74;101678.94;5040923;28;20823;-88
2022/01/23 03:43:32;;;;;;;79.65;26.77;;;;;;;5.02;80.97;101664.00;5037341;28;20532;-86
2022/01/23 03:46:21;;;;;;;85.07;27.45;;;;;;;5.03;80.95;101657.78;5052133;28;20040;-88
2022/01/23 03:51:38;;;;;;;83.55;28.88;;;;;;;5.02;81.23;101671.03;5055724;28;20049;-87
2022/01/23 03:54:05;;;;;;;70.13;21.13;;;;;;;5.04;81.11;101679.72;5039394;28;20052;-88
2022/01/23 03:56:32;;;;;;;73.32;24.20;;;;;;;5.03;80.91;101673.59;5042310;28;20630;-87
2022/01/23 03:58:59;;;;;;;75.40;22.67;;;;;;;5.04;80.90;101675.31;5013608;28;20110;-87
2022/01/23 04:01:29;;;;;;;83.68;27.20;;;;;;;5.03;80.97;101675.38;5027011;28;20048;-87
2022/01/23 04:04:01;;;;;;;70.97;23.63;;;;;;;5.05;81.06;101676.19;5009486;28;20068;-85
2022/01/23 04:06:28;;;;;;;66.32;20.90;;;;;;;5.04;81.10;101672.69;5008376;28;20048;-87
2022/01/23 04:08:55;;;;;;;75.07;25.25;;;;;;;5.06;81.01;101672.63;5010379;28;20048;-87
2022/01/23 04:11:22;;;;;;;89.50;28.23;;;;;;;5.06;80.64;101675.25;5010710;28;20104;-89
2022/01/23 04:14:04;;;;;;;87.28;29.40;;;;;;;5.05;80.83;101669.13;5013945;28;20068;-88
2022/01/23 04:19:37;;;;;;;92.05;29.45;;;;;;;5.02;81.02;101669.25;4979085;28;20428;-87
2022/01/23 04:33:42;;;;;;;79.50;26.08;;;;;;;5.02;80.65;101634.16;4895238;28;20050;-87
2022/01/23 05:01:01;;;;;;;87.28;28.15;;;;;;;4.97;80.62;101679.94;5017594;28;20045;-86
2022/01/23 05:06:28;;;;;;;96.53;31.38;;;;;;;5.00;80.86;101685.09;4991020;28;20052;-84
2022/01/23 05:09:07;;;;;;;94.57;29.23;;;;;;;5.00;80.86;101687.72;5008607;28;20056;-85
2022/01/23 05:11:55;;;;;;;95.43;31.17;;;;;;;4.98;80.86;101675.53;5020720;28;20396;-87
2022/01/23 05:14:36;;;;;;;101.60;32.33;;;;;;;4.99;80.90;101672.00;5013541;28;20041;-88
2022/01/23 05:17:05;;;;;;;88.40;30.23;;;;;;;5.01;80.87;101680.69;5011581;28;20041;-88
2022/01/23 05:19:33;;;;;;;73.10;23.30;;;;;;;5.02;80.77;101681.56;5027738;28;20559;-88
2022/01/23 05:24:33;;;;;;;111.68;34.08;;;;;;;5.03;80.85;101685.91;4996650;28;20056;-83
2022/01/23 05:27:02;;;;;;;82.18;26.10;;;;;;;5.01;81.05;101683.31;5013454;28;20532;-87
2022/01/23 05:29:29;;;;;;;83.57;25.25;;;;;;;5.02;80.82;101681.56;5032449;28;20037;-87
2022/01/23 05:31:56;;;;;;;82.35;24.45;;;;;;;5.02;80.73;101684.19;5023870;28;20056;-87
2022/01/23 05:34:23;;;;;;;83.43;24.77;;;;;;;5.03;80.97;101688.53;5050176;28;20048;-88
2022/01/23 05:36:53;;;;;;;85.65;27.90;;;;;;;5.03;80.95;101688.53;5051424;28;20048;-86
2022/01/23 05:39:23;;;;;;;84.40;28.40;;;;;;;5.03;81.08;101692.03;5026197;28;20514;-87
2022/01/23 05:41:58;;;;;;;103.05;27.92;;;;;;;5.03;80.92;101691.16;5054406;28;20052;-85
2022/01/23 05:44:25;;;;;;;65.03;21.60;;;;;;;5.03;80.83;101692.03;5056040;28;20136;-89
2022/01/23 05:46:52;;;;;;;80.45;25.65;;;;;;;5.03;81.01;101697.28;5044119;28;20048;-87
2022/01/23 05:49:24;;;;;;;74.45;24.27;;;;;;;5.02;80.86;101700.84;5038710;28;20051;-87
2022/01/23 05:52:11;;;;;;;85.78;26.40;;;;;;;5.02;80.82;101702.63;4990799;28;20049;-86
2022/01/23 05:54:59;;;;;;;84.18;25.70;;;;;;;5.02;81.03;101705.25;5021915;28;20044;-87
2022/01/23 05:57:56;;;;;;;88.75;29.90;;;;;;;5.00;80.97;101711.41;4982213;28;20045;-87
2022/01/23 06:00:39;;;;;;;;;;;;;;;4.82;81.21;101719.97;5025956;28;20037;-87
2022/01/23 06:03:11;;;;;;;85.82;26.90;;;;;;;4.96;81.24;101716.84;5036485;28;19921;-87
2022/01/23 06:05:46;;;;;;;84.00;27.00;;;;;;;4.97;81.13;101714.16;5040809;28;20388;-87
2022/01/23 06:08:16;;;;;;;78.40;21.80;;;;;;;4.98;81.11;101715.88;5042915;28;20055;-88
2022/01/23 06:10:54;;;;;;;74.22;23.45;;;;;;;4.99;80.84;101712.34;5039880;28;20524;-86
2022/01/23 06:13:27;;;;;;;87.32;28.60;;;;;;;4.99;81.12;101712.34;5017281;28;20065;-88
2022/01/23 06:15:56;;;;;;;82.60;25.85;;;;;;;5.01;81.07;101714.91;5043955;28;20041;-88
2022/01/23 06:18:23;;;;;;;74.75;24.23;;;;;;;5.00;81.15;101713.19;5038739;28;20056;-88
2022/01/23 06:21:08;;;;;;;85.88;27.20;;;;;;;5.00;80.93;101716.69;5061304;28;20056;-88
2022/01/23 06:23:35;;;;;;;82.05;26.88;;;;;;;5.00;81.14;101726.38;5049793;28;20484;-85
2022/01/23 06:26:52;;;;;;;83.95;26.98;;;;;;;4.90;81.22;101728.44;5049131;28;20048;-87
2022/01/23 06:29:20;;;;;;;90.97;28.00;;;;;;;4.98;81.00;101726.41;5022203;28;20052;-88
2022/01/23 06:31:49;;;;;;;81.30;26.00;;;;;;;4.99;81.12;101732.56;5043067;28;20052;-85
2022/01/23 06:34:17;;;;;;;85.20;27.70;;;;;;;5.00;81.18;101736.91;5030030;28;20052;-87
2022/01/23 06:36:45;;;;;;;79.10;24.38;;;;;;;4.99;81.01;101743.94;5052355;28;20040;-87
2022/01/23 06:39:13;;;;;;;81.63;24.17;;;;;;;5.00;80.92;101737.75;5027137;28;20106;-86
2022/01/23 06:41:41;;;;;;;88.78;28.25;;;;;;;4.99;81.05;101737.81;5045370;28;20045;-87
2022/01/23 06:44:27;;;;;;;73.72;21.92;;;;;;;4.99;81.07;101735.19;5021479;28;20132;-87
2022/01/23 06:46:55;;;;;;;83.82;26.67;;;;;;;4.99;81.26;101730.78;5036150;28;20102;-87
2022/01/23 06:50:13;;;;;;;69.18;21.77;;;;;;;4.90;81.15;101733.72;5025285;28;20513;-87
2022/01/23 06:52:40;;;;;;;86.45;27.58;;;;;;;4.98;81.26;101733.44;4952370;28;20114;-87
2022/01/23 06:55:07;;;;;;;91.63;30.23;;;;;;;4.98;81.03;101722.91;5054304;28;20048;-87
2022/01/23 06:57:36;;;;;;;82.53;26.05;;;;;;;4.99;81.03;101730.78;5043863;28;20041;-87
2022/01/23 07:00:05;;;;;;;77.03;23.92;;;;;;;4.99;81.14;101735.19;5027570;28;20065;-88
2022/01/23 07:02:55;;;;;;;94.63;30.48;;;;;;;4.99;81.26;101740.44;5010177;28;20055;-87
2022/01/23 07:05:41;;;;;;;98.20;32.08;;;;;;;4.97;81.09;101745.75;5030205;28;20040;-82
2022/01/23 07:08:31;;;;;;;98.63;31.13;;;;;;;4.98;81.27;101758.00;5008550;28;20527;-84
2022/01/23 07:11:26;;;;;;;84.72;28.60;;;;;;;4.97;81.48;101772.09;5043734;28;20503;-87
2022/01/23 07:14:22;;;;;;;82.30;24.90;;;;;;;4.97;81.21;101779.97;4967160;28;20509;-86
2022/01/23 07:17:27;;;;;;;90.40;25.98;;;;;;;4.98;81.48;101794.00;4989487;28;20091;-88
2022/01/23 07:20:00;;;;;;;89.40;26.75;;;;;;;4.96;81.28;101786.19;4993786;28;20053;-87
2022/01/23 07:22:32;;;;;;;86.93;29.08;;;;;;;4.98;81.13;101786.09;5008949;28;20040;-87
2022/01/23 07:25:01;;;;;;;95.40;30.30;;;;;;;4.98;81.23;101778.19;5023964;28;20049;-87
2022/01/23 07:31:06;;;;;;;79.82;27.52;;;;;;;4.95;81.30;101784.44;4984094;28;20071;-87
2022/01/23 07:33:35;;;;;;;101.45;32.47;;;;;;;4.96;81.33;101780.03;5058184;28;20126;-87
2022/01/23 07:36:05;;;;;;;89.68;30.63;;;;;;;4.96;81.25;101795.81;5047038;28;20056;-88
2022/01/23 07:39:00;;;;;;;95.88;32.08;;;;;;;4.87;81.33;101798.78;5049005;28;20049;-87
2022/01/23 07:41:47;;;;;;;68.97;21.65;;;;;;;4.94;81.18;101787.13;4998630;28;20053;-87
2022/01/23 07:44:34;;;;;;;84.32;27.35;;;;;;;4.95;81.11;101791.47;5053140;28;20132;-87
2022/01/23 07:47:22;;;;;;;89.95;29.05;;;;;;;4.95;81.25;101786.22;5048815;28;20033;-86
2022/01/23 07:50:10;;;;;;;98.93;30.05;;;;;;;4.94;81.05;101787.13;5015602;28;20059;-83
2022/01/23 07:53:16;;;;;;;95.78;30.90;;;;;;;4.94;81.04;101795.88;5001324;28;20088;-86
2022/01/23 07:56:06;;;;;;;99.05;32.78;;;;;;;4.96;81.06;101795.81;5011835;28;20045;-87
2022/01/23 07:58:52;;;;;;;101.88;34.83;;;;;;;4.95;81.37;101796.75;5029007;28;20051;-87
2022/01/23 08:01:45;;;;;;;95.40;32.33;;;;;;;4.93;81.15;101801.19;5008162;28;20066;-88
2022/01/23 08:04:30;;;;;;;94.15;33.13;;;;;;;4.95;81.20;101804.66;5009918;28;20187;-88
2022/01/23 08:07:13;;;;;;;107.53;36.85;;;;;;;4.94;81.24;101806.41;5037635;28;20066;-88
2022/01/23 08:09:53;;;;;;;107.55;34.08;;;;;;;4.93;81.21;101803.81;5039511;28;20041;-82
2022/01/23 08:12:23;;;;;;;104.57;34.38;;;;;;;4.93;80.94;101802.03;5049909;28;20053;-84
2022/01/23 08:14:50;;;;;;;100.40;33.28;;;;;;;4.96;81.25;101803.72;5053368;28;20051;-82
2022/01/23 08:17:19;;;;;;;97.97;33.45;;;;;;;4.96;81.43;101808.97;5041779;28;20059;-82
2022/01/23 08:19:46;;;;;;;107.65;33.80;;;;;;;4.96;81.17;101809.88;5057959;28;20044;-83
2022/01/23 08:22:13;;;;;;;90.95;28.63;;;;;;;4.97;81.39;101806.31;5050977;28;20059;-82
2022/01/23 08:24:41;;;;;;;96.53;30.02;;;;;;;4.99;81.25;101798.38;5053830;28;20063;-82
2022/01/23 08:27:10;;;;;;;98.85;32.40;;;;;;;4.98;80.98;101805.38;5053706;28;20041;-82
2022/01/23 08:29:37;;;;;;;95.03;30.65;;;;;;;4.99;81.41;101801.84;5039697;28;20062;-83
2022/01/23 08:32:04;;;;;;;96.00;30.60;;;;;;;5.00;81.21;101803.56;5045360;28;20106;-82
2022/01/23 08:35:00;;;;;;;106.97;34.10;;;;;;;4.91;81.12;101803.00;5052077;28;20045;-83
2022/01/23 08:37:27;;;;;;;108.53;32.78;;;;;;;5.02;81.46;101815.84;4975686;28;20041;-83
2022/01/23 08:39:54;;;;;;;110.57;35.38;;;;;;;4.98;81.74;101821.19;5054343;28;20049;-82
2022/01/23 08:42:21;;;;;;;124.53;38.08;;;;;;;5.01;81.54;101814.97;5059321;28;20041;-83
2022/01/23 08:44:48;;;;;;;119.78;36.72;;;;;;;5.00;81.23;101814.09;5055663;28;20120;-82
2022/01/23 08:48:10;;;;;;;114.28;36.25;;;;;;;4.93;81.37;101817.00;5027240;28;20041;-83
2022/01/23 08:50:37;;;;;;;125.88;37.13;;;;;;;5.03;81.31;101834.19;4996889;28;20392;-83
2022/01/23 08:53:05;;;;;;;107.25;35.05;;;;;;;5.00;81.38;101835.16;5025592;28;20388;-83
2022/01/23 08:55:33;;;;;;;110.47;35.83;;;;;;;5.00;81.54;101837.78;5037987;28;20044;-83
2022/01/23 08:58:00;;;;;;;122.97;36.42;;;;;;;4.99;81.64;101836.09;5050633;28;20507;-83
2022/01/23 09:00:29;;;;;;;112.70;35.90;;;;;;;4.92;81.51;101841.59;5048323;28;20051;-81
2022/01/23 09:02:55;;;;;;;108.78;34.55;;;;;;;4.98;81.68;101844.03;5054403;28;20048;-82
2022/01/23 09:05:23;;;;;;;107.10;34.30;;;;;;;4.99;81.61;101838.72;5043399;28;20072;-82
2022/01/23 09:07:50;;;;;;;105.53;36.72;;;;;;;5.01;81.82;101830.75;5048838;28;20045;-83
2022/01/23 09:10:24;;;;;;;110.85;35.50;;;;;;;5.02;81.48;101824.59;5022017;28;20057;-83
2022/01/23 09:13:09;;;;;;;118.65;37.55;;;;;;;5.04;81.47;101837.69;5034984;28;20072;-83
2022/01/23 09:15:36;;;;;;;112.15;38.47;;;;;;;5.04;81.69;101838.56;5042586;28;20063;-83
2022/01/23 09:18:03;;;;;;;114.30;36.53;;;;;;;5.05;81.69;101832.38;5051004;28;20448;-83
2022/01/23 09:20:30;;;;;;;114.78;36.03;;;;;;;5.07;81.53;101838.47;5040969;28;20380;-82
2022/01/23 09:22:57;;;;;;;114.03;36.90;;;;;;;5.09;81.33;101844.53;5054227;28;20049;-83
2022/01/23 09:25:24;;;;;;;117.80;38.05;;;;;;;5.09;81.37;101839.28;5030718;28;20056;-83
2022/01/23 09:27:52;;;;;;;126.72;38.50;;;;;;;5.10;81.38;101841.00;5050092;28;20052;-82
2022/01/23 09:30:22;;;;;;;113.72;35.60;;;;;;;5.11;81.33;101833.94;5051870;28;20049;-83
2022/01/23 09:32:49;;;;;;;110.18;35.58;;;;;;;5.13;81.69;101832.97;5033664;28;20041;-83
2022/01/23 09:35:17;;;;;;;115.10;35.20;;;;;;;5.14;81.49;101829.44;5049173;28;20531;-83
2022/01/23 09:37:45;;;;;;;109.93;37.38;;;;;;;5.13;81.60;101830.34;5037505;28;20044;-83
2022/01/23 09:40:13;;;;;;;110.68;33.88;;;;;;;5.14;81.48;101836.47;5039448;28;20095;-82
2022/01/23 09:42:59;;;;;;;100.75;33.42;;;;;;;5.06;81.48;101827.97;5060653;28;20040;-83
2022/01/23 09:45:27;;;;;;;115.68;36.85;;;;;;;5.16;81.60;101824.97;5040405;28;20404;-83
2022/01/23 09:47:55;;;;;;;114.15;37.10;;;;;;;5.18;81.36;101830.19;5051191;28;20048;-82
2022/01/23 09:50:22;;;;;;;115.07;37.60;;;;;;;5.16;81.74;101824.13;5051144;28;20044;-83
2022/01/23 09:52:52;;;;;;;116.90;37.03;;;;;;;5.17;81.30;101826.72;5051830;28;20052;-83
2022/01/23 09:55:25;;;;;;;116.07;35.42;;;;;;;5.19;81.51;101821.38;5038344;28;20037;-83
2022/01/23 09:57:52;;;;;;;128.27;38.10;;;;;;;5.21;81.23;101827.44;5050822;28;20044;-83
2022/01/23 10:00:24;;;;;;;122.32;35.60;;;;;;;5.23;81.23;101828.25;5049748;28;20080;-82
2022/01/23 10:02:51;;;;;;;116.38;35.88;;;;;;;5.23;81.33;101830.91;5051472;28;20064;-83
2022/01/23 10:05:18;;;;;;;113.22;32.58;;;;;;;5.21;81.53;101838.84;5036571;28;20040;-83
2022/01/23 10:07:45;;;;;;;121.63;37.00;;;;;;;5.21;81.29;101827.44;5051937;28;20036;-83
2022/01/23 10:10:26;;;;;;;123.53;36.85;;;;;;;5.13;81.24;101825.06;5068157;28;20049;-82
2022/01/23 10:12:56;;;;;;;122.90;36.20;;;;;;;5.15;81.32;101828.53;5025158;28;20063;-83
2022/01/23 10:15:26;;;;;;;127.70;36.88;;;;;;;5.16;81.57;101824.97;5035108;28;20522;-83
2022/01/23 10:17:54;;;;;;;126.75;36.95;;;;;;;5.21;81.36;101828.31;5032889;28;20447;-83
2022/01/23 10:20:21;;;;;;;131.02;37.90;;;;;;;5.21;81.64;101828.31;5038097;28;20045;-83
2022/01/23 10:22:50;;;;;;;118.80;36.47;;;;;;;5.23;81.59;101830.91;5055364;28;20053;-82
2022/01/23 10:25:23;;;;;;;141.80;40.30;;;;;;;5.21;81.26;101828.31;5051578;28;20119;-83
2022/01/23 10:28:02;;;;;;;115.25;38.17;;;;;;;5.21;81.29;101823.03;4991471;28;20067;-83
2022/01/23 10:30:43;;;;;;;105.38;32.50;;;;;;;5.25;81.52;101818.53;5050363;28;20048;-82
2022/01/23 10:33:14;;;;;;;120.50;36.05;;;;;;;5.26;81.48;101825.53;5035600;28;20041;-83
2022/01/23 10:36:04;;;;;;;111.20;34.55;;;;;;;5.20;81.26;101829.22;5051269;28;20494;-82
2022/01/23 10:38:40;;;;;;;118.25;36.90;;;;;;;5.27;81.35;101824.63;4980995;28;20052;-82
2022/01/23 10:49:57;;;;;;;106.40;33.80;;;;;;;5.30;81.29;101807.84;5036499;28;20083;-79
2022/01/23 10:52:27;;;;;;;125.03;37.47;;;;;;;5.33;81.75;101805.09;5072958;28;20114;-78
2022/01/23 10:54:54;;;;;;;109.55;35.22;;;;;;;5.37;81.69;101807.59;5051072;28;20043;-78
2022/01/23 10:57:20;;;;;;;107.03;33.85;;;;;;;5.35;81.76;101798.88;5055686;28;20071;-78
2022/01/23 10:59:50;;;;;;;117.00;36.40;;;;;;;5.40;81.88;101804.84;5043650;28;20041;-78
2022/01/23 11:02:21;;;;;;;111.97;34.67;;;;;;;5.41;81.45;101803.06;5031896;28;20102;-78
2022/01/23 11:05:05;;;;;;;112.57;35.03;;;;;;;5.35;81.35;101805.91;5039547;28;20036;-78
2022/01/23 11:07:33;;;;;;;107.13;34.10;;;;;;;5.38;81.80;101808.44;5035189;28;20044;-78
2022/01/23 11:10:05;;;;;;;110.55;34.90;;;;;;;5.37;81.68;101804.09;5038371;28;20431;-78
2022/01/23 11:18:14;;;;;;;110.22;33.65;;;;;;;5.46;81.45;101805.53;5044596;28;20104;-78
2022/01/23 11:20:43;;;;;;;90.63;30.55;;;;;;;5.47;81.67;101802.84;5051475;28;20148;-78
2022/01/23 11:23:19;;;;;;;93.75;30.88;;;;;;;5.50;81.24;101794.84;5048072;28;20052;-78
2022/01/23 11:25:52;;;;;;;84.35;28.23;;;;;;;5.48;81.16;101790.53;5035486;28;20072;-78
2022/01/23 11:28:31;;;;;;;91.50;29.25;;;;;;;5.49;81.09;101785.19;5054612;28;20070;-78
2022/01/23 11:30:58;;;;;;;86.93;31.27;;;;;;;5.55;81.35;101784.13;5055967;28;20491;-78
2022/01/23 11:33:28;;;;;;;88.45;29.70;;;;;;;5.53;81.13;101778.91;5056180;28;20048;-78
2022/01/23 11:35:54;;;;;;;92.65;29.95;;;;;;;5.53;81.51;101781.53;5057351;28;20037;-78
2022/01/23 11:38:23;;;;;;;99.90;31.70;;;;;;;5.55;81.22;101789.41;5052884;28;20438;-78
2022/01/23 11:54:48;;;;;;;76.95;28.05;;;;;;;5.53;81.00;101767.50;5041883;28;20048;-78
2022/01/23 11:57:39;;;;;;;80.07;27.42;;;;;;;5.50;81.24;101759.72;5041908;28;20041;-78
2022/01/23 12:00:39;;;;;;;85.55;26.42;;;;;;;5.59;81.16;101765.50;4999211;28;20129;-78
2022/01/23 12:03:14;;;;;;;85.13;27.27;;;;;;;5.56;81.37;101754.22;4997595;28;20119;-78
2022/01/23 12:05:44;;;;;;;92.32;29.95;;;;;;;5.64;81.54;101758.28;5032532;28;20114;-78
2022/01/23 12:08:23;;;;;;;80.50;28.67;;;;;;;5.64;81.55;101758.28;5058620;28;20132;-78
2022/01/23 12:11:40;;;;;;;78.93;27.55;;;;;;;5.64;81.85;101760.91;5028884;28;20059;-78
2022/01/23 12:17:03;;;;;;;87.45;26.58;;;;;;;5.80;81.80;101761.22;5040644;28;20036;-79
2022/01/23 12:19:32;;;;;;;87.93;28.13;;;;;;;5.79;81.78;101756.00;5052824;28;20131;-79
2022/01/23 12:22:36;;;;;;;90.07;29.00;;;;;;;5.73;81.52;101753.59;5042614;28;20053;-78
2022/01/23 12:25:08;;;;;;;83.93;27.95;;;;;;;5.76;81.68;101749.06;5015447;28;20445;-78
2022/01/23 12:27:35;;;;;;;78.50;27.70;;;;;;;5.82;81.79;101750.59;5053348;28;20132;-78
2022/01/23 12:30:14;;;;;;;82.10;28.38;;;;;;;5.76;81.43;101754.34;5023500;28;20044;-77
2022/01/23 12:32:46;;;;;;;81.57;25.67;;;;;;;5.86;81.59;101754.84;5041210;28;20055;-78
2022/01/23 12:35:15;;;;;;;73.70;26.60;;;;;;;5.82;81.64;101753.25;5053201;28;20045;-78
2022/01/23 12:38:00;;;;;;;78.55;27.95;;;;;;;5.77;81.30;101752.56;5067397;28;20076;-78
2022/01/23 12:40:29;;;;;;;73.68;24.48;;;;;;;5.81;81.20;101741.84;5049668;28;20044;-78
2022/01/23 12:43:18;;;;;;;70.75;25.88;;;;;;;5.79;81.05;101748.09;5054132;28;20048;-78
2022/01/23 12:45:56;;;;;;;;;;;;;;;5.61;81.32;101747.84;5040837;28;20044;-78
2022/01/23 12:48:26;;;;;;;69.30;22.85;;;;;;;5.75;81.41;101750.00;5049993;28;19931;-78
2022/01/23 12:51:01;;;;;;;71.10;23.30;;;;;;;5.78;81.31;101743.75;5053030;28;20090;-78
2022/01/23 12:53:48;;;;;;;74.93;23.85;;;;;;;5.71;81.15;101737.84;5049436;28;20110;-78
2022/01/23 12:56:16;;;;;;;76.57;24.65;;;;;;;5.83;81.16;101739.16;5036773;28;20508;-78
2022/01/23 12:58:59;;;;;;;74.80;25.70;;;;;;;5.76;81.23;101738.53;5052515;28;20123;-78
2022/01/23 13:01:28;;;;;;;74.95;25.70;;;;;;;5.83;81.42;101736.53;5017327;28;20045;-78
2022/01/23 13:04:01;;;;;;;80.30;26.92;;;;;;;5.84;81.12;101738.22;5053923;28;20048;-78
2022/01/23 13:06:32;;;;;;;76.53;24.08;;;;;;;5.80;81.13;101733.97;5034902;28;20128;-78
2022/01/23 13:14:58;;;;;;;74.75;24.75;;;;;;;5.79;80.79;101730.50;5050411;28;20120;-78
2022/01/23 13:31:09;;;;;;;83.53;27.13;;;;;;;5.87;80.50;101723.13;5022713;28;20403;-78
2022/01/23 13:33:37;;;;;;;;;;;;;;;5.67;80.68;101723.03;5051004;28;20512;-78
2022/01/23 13:36:09;;;;;;;71.32;24.48;;;;;;;5.79;80.57;101719.94;5038968;28;19920;-78
2022/01/23 13:38:38;;;;;;;71.85;23.65;;;;;;;5.83;80.61;101716.28;5022805;28;20130;-78
2022/01/23 13:41:21;;;;;;;71.93;23.90;;;;;;;5.81;80.26;101712.84;5036759;28;20048;-78
2022/01/23 13:50:36;;;;;;;72.60;23.27;;;;;;;5.88;80.53;101716.97;5036044;28;20044;-77
2022/01/23 13:52:43;;;;;;;72.30;22.98;;;;;;;5.88;80.48;101708.22;5025555;28;20048;-78
2022/01/23 13:58:20;;;;;;;68.25;23.83;;;;;;;5.89;80.33;101720.47;5039649;28;20048;-78
2022/01/23 14:00:41;;;;;;;64.40;21.80;;;;;;;5.91;80.17;101716.00;5014355;28;20067;-78
2022/01/23 14:03:08;;;;;;;60.05;22.48;;;;;;;5.93;80.13;101713.28;5034943;28;20041;-78
2022/01/23 14:05:35;;;;;;;63.75;23.77;;;;;;;5.92;80.09;101712.41;5037125;28;20090;-77
2022/01/23 14:08:03;;;;;;;66.07;24.85;;;;;;;5.94;79.65;101717.69;5046982;28;20096;-78
2022/01/23 14:10:34;;;;;;;56.90;22.42;;;;;;;5.94;79.58;101725.59;5054132;28;20051;-78
2022/01/23 14:13:14;;;;;;;54.90;21.45;;;;;;;5.91;79.54;101723.03;5055314;28;20045;-78
2022/01/23 14:15:46;;;;;;;61.03;23.70;;;;;;;5.92;79.41;101719.47;5047127;28;20600;-78
2022/01/23 14:18:17;;;;;;;58.83;21.42;;;;;;;5.94;79.64;101715.03;5054766;28;20041;-78
2022/01/23 14:20:45;;;;;;;59.85;22.30;;;;;;;5.96;79.78;101719.34;5049426;28;20053;-78
2022/01/23 14:23:17;;;;;;;59.50;23.13;;;;;;;5.92;79.43;101717.69;5019622;28;20408;-78
2022/01/23 14:25:49;;;;;;;64.30;23.10;;;;;;;5.94;79.51;101715.91;5052309;28;20519;-80
2022/01/23 14:28:28;;;;;;;65.17;24.30;;;;;;;5.93;79.75;101718.53;5036938;28;20446;-78
2022/01/23 14:30:59;;;;;;;67.10;23.88;;;;;;;5.95;79.56;101722.03;5046446;28;20459;-78
2022/01/23 14:37:52;;;;;;;55.95;21.40;;;;;;;5.93;79.77;101708.88;5039242;28;20024;-78
2022/01/23 14:40:20;;;;;;;56.28;20.25;;;;;;;5.97;79.69;101709.63;5050753;28;20518;-80
2022/01/23 14:43:00;;;;;;;51.15;19.15;;;;;;;5.90;79.82;101711.63;5035885;28;20060;-78
2022/01/23 14:45:30;;;;;;;55.15;21.80;;;;;;;5.96;79.90;101707.94;5018425;28;20475;-78
2022/01/23 14:47:56;;;;;;;54.67;20.75;;;;;;;5.98;80.20;101703.44;5034080;28;20407;-79
2022/01/23 14:50:26;;;;;;;58.92;20.88;;;;;;;5.99;79.95;101699.91;5051450;28;20112;-79
2022/01/23 14:52:53;;;;;;;53.60;20.33;;;;;;;5.99;80.24;101703.38;5037232;28;20051;-79
2022/01/23 14:55:20;;;;;;;58.05;20.05;;;;;;;6.01;79.93;101704.19;5039183;28;20048;-79
2022/01/23 14:57:47;;;;;;;41.13;17.40;;;;;;;6.02;79.93;101713.81;5049720;28;20049;-81
2022/01/23 15:00:16;;;;;;;49.67;18.58;;;;;;;6.02;80.09;101703.25;5036073;28;20431;-78
2022/01/23 15:02:44;;;;;;;50.88;17.55;;;;;;;6.03;79.96;101712.91;5048800;28;20385;-79
2022/01/23 15:05:11;;;;;;;45.03;17.08;;;;;;;6.05;79.72;101712.81;5018745;28;20047;-78
2022/01/23 15:07:40;;;;;;;41.42;14.75;;;;;;;6.05;79.75;101705.78;5035297;28;20048;-78
2022/01/23 15:10:12;;;;;;;46.58;14.75;;;;;;;6.04;79.96;101714.63;5046369;28;20169;-77
2022/01/23 15:12:39;;;;;;;45.88;16.48;;;;;;;6.05;80.06;101710.19;5042385;28;20048;-79
2022/01/23 15:15:06;;;;;;;38.28;14.70;;;;;;;6.06;80.11;101715.41;5033533;28;20067;-77
2022/01/23 15:17:33;;;;;;;49.38;18.67;;;;;;;6.05;80.04;101713.69;5041186;28;20043;-78